createdAt,value
2023-05-01T00:00:05.584Z,8.57
2023-05-01T00:02:55.296Z,7.60
2023-05-01T00:05:23.800Z,8.13
2023-05-01T00:07:51.915Z,9.20
2023-05-01T00:10:20.308Z,8.45
2023-05-01T00:12:48.474Z,7.70
2023-05-01T00:15:17.157Z,9.15
2023-05-01T00:17:45.414Z,9.50
2023-05-01T00:20:15.520Z,9.30
2023-05-01T00:22:43.630Z,9.85
2023-05-01T00:25:12.018Z,8.57
2023-05-01T00:27:40.151Z,9.57
2023-05-01T00:30:09.558Z,9.23
2023-05-01T00:32:38.669Z,9.32
2023-05-01T00:35:07.623Z,9.77
2023-05-01T00:37:37.171Z,8.98
2023-05-01T00:40:06.256Z,9.43
2023-05-01T00:42:39.210Z,10.55
2023-05-01T00:45:08.640Z,8.50
2023-05-01T00:47:37.738Z,8.90
2023-05-01T00:50:07.205Z,8.95
2023-05-01T00:52:37.199Z,8.57
2023-05-01T00:55:06.267Z,12.20
2023-05-01T00:57:34.444Z,9.85
2023-05-01T01:00:04.070Z,9.27
2023-05-01T01:05:38.612Z,10.38
2023-05-01T01:10:48.302Z,9.80
2023-05-01T01:13:21.599Z,10.85
2023-05-01T01:15:55.238Z,11.60
2023-05-01T01:18:28.930Z,10.52
2023-05-01T01:21:02.451Z,10.55
2023-05-01T01:23:51.383Z,9.65
2023-05-01T01:26:52.176Z,10.07
2023-05-01T01:29:48.078Z,9.57
2023-05-01T01:32:35.897Z,10.25
2023-05-01T01:35:09.301Z,10.85
2023-05-01T01:37:44.208Z,10.00
2023-05-01T01:40:15.732Z,11.00
2023-05-01T01:42:48.027Z,10.35
2023-05-01T01:45:20.443Z,11.27
2023-05-01T01:47:49.011Z,9.98
2023-05-01T01:50:20.054Z,11.50
2023-05-01T01:52:51.235Z,13.07
2023-05-01T01:55:22.881Z,11.07
2023-05-01T01:57:52.136Z,11.20
2023-05-01T02:00:21.693Z,12.88
2023-05-01T02:02:50.207Z,12.25
2023-05-01T02:05:21.639Z,13.75
2023-05-01T02:07:51.361Z,12.88
2023-05-01T02:10:21.329Z,12.63
2023-05-01T02:12:52.542Z,10.45
2023-05-01T02:15:21.407Z,11.63
2023-05-01T02:17:50.186Z,11.38
2023-05-01T02:20:21.304Z,11.15
2023-05-01T02:22:50.466Z,11.13
2023-05-01T02:25:18.945Z,11.25
2023-05-01T02:27:52.533Z,11.23
2023-05-01T02:30:20.930Z,10.43
2023-05-01T02:32:49.195Z,9.70
2023-05-01T02:35:19.012Z,9.50
2023-05-01T02:37:47.550Z,9.25
2023-05-01T02:40:16.794Z,9.35
2023-05-01T02:42:45.728Z,7.43
2023-05-01T02:45:20.077Z,9.25
2023-05-01T02:47:54.438Z,8.88
2023-05-01T02:50:25.113Z,9.52
2023-05-01T02:52:53.441Z,11.43
2023-05-01T02:55:21.967Z,10.93
2023-05-01T02:57:52.119Z,9.68
2023-05-01T03:00:20.906Z,10.48
2023-05-01T03:02:49.094Z,10.30
2023-05-01T03:05:17.773Z,10.48
2023-05-01T03:07:48.391Z,11.80
2023-05-01T03:10:16.851Z,11.90
2023-05-01T03:12:45.360Z,11.07
2023-05-01T03:15:13.732Z,10.35
2023-05-01T03:17:42.030Z,9.20
2023-05-01T03:20:11.243Z,9.50
2023-05-01T03:22:39.552Z,10.13
2023-05-01T03:25:10.390Z,11.18
2023-05-01T03:27:38.640Z,10.90
2023-05-01T03:30:08.851Z,12.18
2023-05-01T03:32:37.094Z,11.57
2023-05-01T03:35:06.067Z,12.15
2023-05-01T03:37:34.808Z,10.23
2023-05-01T03:40:03.500Z,10.38
2023-05-01T03:42:32.954Z,10.07
2023-05-01T03:45:01.300Z,9.73
2023-05-01T03:47:29.749Z,10.57
2023-05-01T03:49:58.323Z,11.45
2023-05-01T03:52:26.585Z,11.07
2023-05-01T03:54:54.960Z,10.93
2023-05-01T03:57:23.724Z,10.70
2023-05-01T03:59:54.504Z,10.98
2023-05-01T04:02:23.058Z,11.52
2023-05-01T04:04:51.704Z,11.45
2023-05-01T04:07:19.860Z,10.88
2023-05-01T04:09:48.321Z,11.10
2023-05-01T04:12:16.435Z,10.98
2023-05-01T04:14:45.590Z,11.98
2023-05-01T04:17:15.101Z,11.57
2023-05-01T04:19:43.489Z,11.02
2023-05-01T04:22:11.609Z,11.60
2023-05-01T04:24:40.079Z,10.65
2023-05-01T04:27:08.235Z,11.43
2023-05-01T04:29:36.577Z,11.45
2023-05-01T04:32:04.886Z,12.80
2023-05-01T04:34:34.888Z,12.32
2023-05-01T04:37:03.651Z,12.32
2023-05-01T04:39:32.096Z,12.40
2023-05-01T04:42:00.319Z,11.20
2023-05-01T04:44:29.108Z,10.65
2023-05-01T04:46:57.536Z,9.82
2023-05-01T04:49:26.144Z,10.15
2023-05-01T04:51:55.625Z,9.73
2023-05-01T04:54:25.126Z,8.88
2023-05-01T04:56:53.202Z,9.98
2023-05-01T04:59:21.576Z,9.25
2023-05-01T05:01:49.694Z,9.85
2023-05-01T05:04:18.190Z,9.95
2023-05-01T05:06:46.387Z,9.20
2023-05-01T05:09:18.036Z,8.43
2023-05-01T05:11:48.268Z,8.25
2023-05-01T05:14:16.634Z,9.30
2023-05-01T05:16:44.752Z,9.30
2023-05-01T05:19:13.481Z,8.35
2023-05-01T05:21:41.588Z,8.95
2023-05-01T05:24:09.957Z,8.25
2023-05-01T05:26:39.495Z,7.85
2023-05-01T05:29:07.869Z,9.75
2023-05-01T05:31:36.057Z,8.05
2023-05-01T05:34:04.486Z,8.38
2023-05-01T05:36:32.956Z,8.25
2023-05-01T05:39:01.317Z,7.07
2023-05-01T05:41:29.594Z,8.60
2023-05-01T05:43:59.650Z,8.68
2023-05-01T05:46:28.084Z,7.70
2023-05-01T05:48:56.452Z,7.25
2023-05-01T05:51:24.620Z,7.40
2023-05-01T05:53:53.161Z,7.35
2023-05-01T05:56:21.351Z,6.95
2023-05-01T05:58:49.736Z,5.85
2023-05-01T06:01:19.332Z,7.03
2023-05-01T06:03:47.708Z,7.22
2023-05-01T06:06:15.971Z,7.35
2023-05-01T06:08:46.188Z,7.40
2023-05-01T06:11:14.439Z,6.45
2023-05-01T06:13:43.050Z,5.40
2023-05-01T06:16:11.313Z,5.15
2023-05-01T06:18:41.221Z,5.80
2023-05-01T06:21:09.596Z,4.90
2023-05-01T06:23:38.218Z,5.35
2023-05-01T06:26:07.970Z,4.97
2023-05-01T06:28:36.382Z,5.05
2023-05-01T06:31:05.637Z,5.70
2023-05-01T06:33:34.484Z,4.82
2023-05-01T06:36:04.333Z,4.88
2023-05-01T06:38:32.988Z,5.72
2023-05-01T06:41:01.318Z,5.72
2023-05-01T06:43:31.121Z,5.50
2023-05-01T06:45:59.352Z,4.95
2023-05-01T06:48:27.745Z,5.18
2023-05-01T06:50:57.078Z,4.30
2023-05-01T06:53:26.969Z,3.92
2023-05-01T06:55:55.229Z,4.38
2023-05-01T06:58:24.546Z,3.97
2023-05-01T07:00:54.578Z,4.35
2023-05-01T07:03:23.141Z,2.90
2023-05-01T07:05:51.484Z,2.80
2023-05-01T07:08:20.010Z,3.15
2023-05-01T07:10:50.465Z,4.15
2023-05-01T07:13:19.484Z,3.88
2023-05-01T07:15:48.943Z,3.55
2023-05-01T07:18:18.106Z,3.72
2023-05-01T07:20:46.288Z,3.35
2023-05-01T07:23:15.319Z,3.03
2023-05-01T07:25:45.968Z,3.38
2023-05-01T07:28:18.005Z,3.17
2023-05-01T07:30:46.325Z,3.58
2023-05-01T07:33:14.692Z,3.15
2023-05-01T07:35:43.127Z,3.13
2023-05-01T07:38:12.099Z,3.45
2023-05-01T07:40:40.242Z,2.45
2023-05-01T07:43:11.127Z,2.75
2023-05-01T07:45:41.359Z,3.22
2023-05-01T07:48:10.082Z,2.30
2023-05-01T07:50:38.201Z,2.45
2023-05-01T07:53:06.806Z,2.33
2023-05-01T07:55:35.137Z,2.40
2023-05-01T07:58:03.543Z,2.83
2023-05-01T08:00:31.884Z,2.75
2023-05-01T08:03:01.777Z,3.28
2023-05-01T08:05:31.606Z,2.55
2023-05-01T08:08:00.004Z,2.38
2023-05-01T08:10:28.741Z,3.08
2023-05-01T08:12:57.144Z,2.50
2023-05-01T08:15:26.110Z,3.38
2023-05-01T08:17:54.587Z,3.00
2023-05-01T08:20:24.163Z,3.17
2023-05-01T08:22:52.694Z,2.92
2023-05-01T08:25:20.847Z,2.45
2023-05-01T08:27:50.321Z,2.40
2023-05-01T08:30:18.478Z,2.40
2023-05-01T08:32:46.927Z,2.50
2023-05-01T08:35:15.131Z,2.30
2023-05-01T08:37:45.164Z,2.95
2023-05-01T08:40:13.637Z,2.20
2023-05-01T08:42:42.083Z,2.63
2023-05-01T08:45:11.871Z,2.53
2023-05-01T08:47:41.134Z,2.72
2023-05-01T08:50:12.513Z,2.67
2023-05-01T08:52:43.201Z,2.60
2023-05-01T08:55:15.182Z,2.00
2023-05-01T09:00:18.368Z,2.10
2023-05-01T09:02:48.142Z,2.20
2023-05-01T09:05:18.145Z,1.88
2023-05-01T09:07:47.248Z,2.00
2023-05-01T09:10:18.963Z,2.65
2023-05-01T09:12:51.832Z,2.15
2023-05-01T09:15:20.285Z,1.80
2023-05-01T09:17:49.152Z,2.55
2023-05-01T09:20:18.104Z,2.10
2023-05-01T09:22:46.523Z,2.13
2023-05-01T09:25:16.171Z,2.13
2023-05-01T09:27:45.807Z,2.47
2023-05-01T09:30:31.606Z,2.30
2023-05-01T09:33:11.312Z,2.45
2023-05-01T09:35:53.297Z,2.03
2023-05-01T09:40:51.952Z,2.42
2023-05-01T09:43:27.671Z,1.95
2023-05-01T09:46:06.866Z,2.25
2023-05-01T09:48:36.271Z,2.22
2023-05-01T09:51:22.019Z,2.05
2023-05-01T09:53:51.362Z,2.03
2023-05-01T09:56:21.703Z,2.15
2023-05-01T09:58:51.551Z,2.10
2023-05-01T10:01:20.208Z,2.60
2023-05-01T10:03:55.497Z,2.20
2023-05-01T10:06:29.940Z,2.65
2023-05-01T10:08:58.611Z,2.05
2023-05-01T10:11:28.262Z,2.35
2023-05-01T10:14:09.655Z,2.63
2023-05-01T10:16:38.914Z,2.10
2023-05-01T10:19:07.727Z,1.90
2023-05-01T10:21:36.384Z,2.35
2023-05-01T10:24:05.905Z,2.40
2023-05-01T10:26:36.209Z,2.50
2023-05-01T10:29:05.133Z,2.17
2023-05-01T10:31:33.692Z,1.92
2023-05-01T10:34:02.872Z,2.13
2023-05-01T10:36:35.601Z,2.35
2023-05-01T10:39:04.336Z,2.00
2023-05-01T10:42:11.036Z,1.90
2023-05-01T10:44:39.682Z,2.50
2023-05-01T10:47:45.141Z,1.67
2023-05-01T10:50:15.823Z,2.15
2023-05-01T10:53:18.533Z,2.45
2023-05-01T10:55:49.235Z,1.90
2023-05-01T10:58:51.751Z,2.15
2023-05-01T11:01:35.010Z,1.88
2023-05-01T11:04:05.347Z,2.10
2023-05-01T11:06:33.963Z,2.05
2023-05-01T11:09:02.609Z,2.03
2023-05-01T11:11:50.143Z,8.20
2023-05-01T11:14:19.247Z,2.30
2023-05-01T11:16:49.484Z,3.60
2023-05-01T11:19:52.522Z,2.25
2023-05-01T11:22:20.922Z,2.50
2023-05-01T11:24:49.077Z,25.98
2023-05-01T11:27:18.254Z,8.60
2023-05-01T11:29:48.491Z,21.08
2023-05-01T11:32:27.406Z,3.35
2023-05-01T11:34:56.123Z,3.70
2023-05-01T11:37:40.507Z,2.05
2023-05-01T11:40:20.598Z,2.55
2023-05-01T11:42:49.183Z,3.42
2023-05-01T11:45:18.050Z,1.85
2023-05-01T11:47:47.937Z,2.60
2023-05-01T11:50:16.905Z,2.60
2023-05-01T11:52:46.688Z,2.15
2023-05-01T11:55:14.813Z,2.75
2023-05-01T11:57:50.201Z,2.97
2023-05-01T12:00:27.702Z,2.00
2023-05-01T12:03:02.657Z,2.08
2023-05-01T12:05:32.601Z,2.30
2023-05-01T12:08:09.618Z,2.22
2023-05-01T12:10:39.174Z,2.60
2023-05-01T12:13:08.647Z,2.88
2023-05-01T12:15:38.408Z,2.15
2023-05-01T12:18:08.794Z,2.42
2023-05-01T12:20:41.654Z,2.20
2023-05-01T12:23:11.675Z,2.40
2023-05-01T12:25:41.032Z,2.50
2023-05-01T12:28:11.344Z,2.78
2023-05-01T12:30:40.133Z,2.58
2023-05-01T12:33:15.103Z,2.17
2023-05-01T12:35:46.560Z,2.28
2023-05-01T12:38:16.237Z,2.78
2023-05-01T12:40:54.647Z,2.58
2023-05-01T12:43:24.191Z,2.42
2023-05-01T12:45:54.351Z,2.63
2023-05-01T12:48:24.836Z,3.05
2023-05-01T12:50:54.894Z,2.75
2023-05-01T12:53:24.644Z,2.05
2023-05-01T12:55:56.231Z,2.58
2023-05-01T12:58:24.980Z,2.75
2023-05-01T13:00:54.277Z,2.95
2023-05-01T13:03:26.736Z,3.75
2023-05-01T13:05:56.605Z,2.90
2023-05-01T13:08:36.096Z,2.95
2023-05-01T13:11:12.941Z,2.88
2023-05-01T13:13:42.231Z,2.88
2023-05-01T13:16:12.745Z,2.60
2023-05-01T13:18:47.244Z,2.58
2023-05-01T13:21:16.770Z,2.95
2023-05-01T13:23:53.887Z,2.45
2023-05-01T13:26:27.728Z,2.67
2023-05-01T13:28:57.129Z,2.97
2023-05-01T13:31:25.649Z,2.90
2023-05-01T13:33:56.084Z,2.38
2023-05-01T13:36:26.875Z,2.40
2023-05-01T13:38:57.492Z,3.08
2023-05-01T13:41:26.859Z,2.40
2023-05-01T13:43:56.586Z,2.85
2023-05-01T13:46:26.919Z,2.10
2023-05-01T13:48:57.320Z,3.25
2023-05-01T13:51:27.115Z,2.60
2023-05-01T13:53:57.345Z,2.80
2023-05-01T13:56:25.598Z,2.40
2023-05-01T13:58:54.146Z,2.55
2023-05-01T14:01:23.865Z,3.85
2023-05-01T14:03:52.649Z,2.60
2023-05-01T14:06:24.203Z,1.95
2023-05-01T14:08:54.265Z,2.17
2023-05-01T14:11:22.406Z,2.92
2023-05-01T14:13:51.969Z,2.38
2023-05-01T14:16:24.736Z,2.22
2023-05-01T14:18:56.617Z,2.47
2023-05-01T14:21:28.402Z,2.80
2023-05-01T14:23:58.155Z,2.60
2023-05-01T14:26:26.692Z,2.78
2023-05-01T14:28:55.808Z,1.77
2023-05-01T14:31:29.199Z,2.33
2023-05-01T14:33:59.083Z,2.08
2023-05-01T14:36:30.996Z,2.58
2023-05-01T14:39:00.240Z,2.00
2023-05-01T14:41:29.408Z,2.42
2023-05-01T14:43:57.842Z,2.10
2023-05-01T14:46:31.431Z,2.55
2023-05-01T14:49:01.449Z,2.20
2023-05-01T14:51:32.461Z,2.85
2023-05-01T14:54:01.305Z,2.40
2023-05-01T14:56:29.457Z,1.98
2023-05-01T14:58:58.554Z,2.35
2023-05-01T15:01:27.349Z,2.75
2023-05-01T15:03:56.023Z,2.92
2023-05-01T15:06:24.790Z,4.05
2023-05-01T15:08:54.734Z,3.10
2023-05-01T15:11:22.827Z,3.00
2023-05-01T15:13:51.375Z,3.17
2023-05-01T15:16:19.565Z,2.55
2023-05-01T15:18:47.973Z,2.88
2023-05-01T15:21:16.307Z,2.30
2023-05-01T15:23:46.160Z,2.28
2023-05-01T15:26:16.435Z,3.13
2023-05-01T15:28:45.002Z,2.20
2023-05-01T15:31:13.136Z,2.13
2023-05-01T15:33:42.185Z,2.65
2023-05-01T15:36:10.862Z,2.65
2023-05-01T15:38:39.237Z,2.83
2023-05-01T15:41:07.520Z,3.47
2023-05-01T15:43:37.637Z,3.35
2023-05-01T15:46:06.030Z,3.15
2023-05-01T15:48:34.623Z,2.72
2023-05-01T15:51:04.448Z,2.53
2023-05-01T15:53:32.982Z,3.00
2023-05-01T15:56:01.372Z,3.10
2023-05-01T15:58:29.846Z,2.78
2023-05-01T16:00:59.704Z,2.33
2023-05-01T16:03:28.354Z,2.92
2023-05-01T16:05:57.539Z,3.78
2023-05-01T16:08:26.279Z,3.30
2023-05-01T16:10:55.114Z,2.85
2023-05-01T16:13:23.518Z,3.83
2023-05-01T16:15:51.819Z,3.33
2023-05-01T16:18:23.971Z,3.35
2023-05-01T16:23:22.076Z,2.72
2023-05-01T16:25:50.212Z,3.20
2023-05-01T16:28:19.163Z,2.95
2023-05-01T16:30:47.339Z,3.00
2023-05-01T16:33:18.783Z,2.63
2023-05-01T16:35:50.321Z,2.95
2023-05-01T16:38:19.342Z,3.20
2023-05-01T16:40:49.002Z,3.40
2023-05-01T16:43:17.672Z,3.25
2023-05-01T16:45:46.940Z,3.33
2023-05-01T16:48:19.571Z,3.10
2023-05-01T16:50:49.127Z,3.25
2023-05-01T16:53:18.184Z,3.40
2023-05-01T16:55:46.533Z,3.20
2023-05-01T16:58:15.123Z,2.83
2023-05-01T17:00:43.759Z,14.70
2023-05-01T17:03:12.392Z,9.52
2023-05-01T17:05:40.773Z,3.50
2023-05-01T17:08:11.929Z,3.70
2023-05-01T17:10:40.222Z,3.72
2023-05-01T17:13:08.800Z,3.33
2023-05-01T17:15:36.911Z,3.53
2023-05-01T17:18:05.898Z,4.15
2023-05-01T17:20:34.128Z,4.18
2023-05-01T17:23:02.704Z,4.45
2023-05-01T17:25:32.341Z,4.93
2023-05-01T17:28:00.748Z,4.50
2023-05-01T17:30:28.881Z,4.18
2023-05-01T17:32:58.233Z,4.22
2023-05-01T17:35:26.681Z,3.50
2023-05-01T17:37:55.261Z,4.93
2023-05-01T17:40:23.655Z,4.65
2023-05-01T17:42:53.506Z,7.45
2023-05-01T17:45:21.782Z,8.73
2023-05-01T17:47:52.856Z,4.47
2023-05-01T17:50:21.434Z,4.05
2023-05-01T17:52:49.834Z,4.68
2023-05-01T17:55:18.564Z,6.60
2023-05-01T17:57:47.511Z,7.47
2023-05-01T18:00:17.910Z,8.05
2023-05-01T18:02:48.229Z,5.65
2023-05-01T18:05:16.645Z,6.50
2023-05-01T18:07:45.002Z,5.50
2023-05-01T18:10:13.280Z,8.50
2023-05-01T18:12:43.406Z,9.82
2023-05-01T18:15:12.453Z,5.85
2023-05-01T18:17:42.238Z,5.32
2023-05-01T18:20:10.984Z,4.97
2023-05-01T18:22:39.448Z,4.88
2023-05-01T18:25:08.491Z,4.47
2023-05-01T18:27:38.165Z,3.72
2023-05-01T18:30:07.173Z,4.00
2023-05-01T18:32:46.922Z,3.95
2023-05-01T18:35:18.863Z,3.50
2023-05-01T18:37:47.701Z,3.47
2023-05-01T18:40:16.447Z,3.60
2023-05-01T18:42:44.938Z,3.90
2023-05-01T18:45:14.288Z,4.25
2023-05-01T18:47:42.946Z,4.03
2023-05-01T18:50:11.645Z,4.45
2023-05-01T18:52:42.333Z,4.55
2023-05-01T18:55:11.365Z,4.65
2023-05-01T18:57:41.680Z,4.85
2023-05-01T19:00:11.192Z,4.80
2023-05-01T19:02:39.616Z,4.43
2023-05-01T19:05:08.833Z,4.63
2023-05-01T19:07:37.863Z,5.32
2023-05-01T19:10:08.635Z,6.53
2023-05-01T19:12:39.076Z,6.97
2023-05-01T19:15:08.022Z,5.78
2023-05-01T19:17:36.460Z,7.30
2023-05-01T19:20:05.173Z,6.88
2023-05-01T19:22:33.528Z,7.22
2023-05-01T19:25:02.777Z,6.03
2023-05-01T19:27:32.638Z,6.05
2023-05-01T19:30:01.601Z,6.20
2023-05-01T19:32:30.294Z,5.80
2023-05-01T19:34:58.573Z,5.90
2023-05-01T19:37:28.087Z,5.43
2023-05-01T19:39:56.435Z,7.40
2023-05-01T19:42:25.060Z,6.43
2023-05-01T19:44:54.515Z,6.88
2023-05-01T19:47:22.973Z,5.97
2023-05-01T19:49:51.123Z,6.25
2023-05-01T19:52:20.272Z,6.35
2023-05-01T19:54:48.490Z,6.70
2023-05-01T19:57:17.295Z,6.32
2023-05-01T19:59:45.442Z,6.85
2023-05-01T20:02:16.223Z,6.78
2023-05-01T20:04:44.531Z,7.50
2023-05-01T20:07:12.933Z,6.18
2023-05-01T20:09:41.096Z,7.07
2023-05-01T20:12:09.709Z,7.65
2023-05-01T20:14:37.810Z,8.27
2023-05-01T20:17:07.348Z,8.30
2023-05-01T20:19:39.386Z,8.82
2023-05-01T20:22:08.377Z,10.80
2023-05-01T20:24:36.502Z,10.73
2023-05-01T20:27:05.546Z,11.32
2023-05-01T20:29:33.645Z,12.20
2023-05-01T20:32:02.017Z,11.27
2023-05-01T20:34:30.253Z,11.82
2023-05-01T20:37:00.185Z,11.95
2023-05-01T20:39:28.316Z,11.05
2023-05-01T20:41:59.062Z,10.98
2023-05-01T20:44:27.765Z,10.90
2023-05-01T20:46:56.534Z,8.57
2023-05-01T20:49:24.758Z,10.50
2023-05-01T20:51:53.368Z,8.82
2023-05-01T20:54:23.380Z,9.20
2023-05-01T20:56:51.793Z,9.05
2023-05-01T20:59:19.908Z,9.05
2023-05-01T21:01:49.445Z,9.48
2023-05-01T21:04:18.033Z,9.70
2023-05-01T21:06:46.769Z,7.82
2023-05-01T21:09:16.068Z,8.27
2023-05-01T21:11:45.901Z,8.35
2023-05-01T21:14:14.093Z,9.15
2023-05-01T21:16:42.790Z,9.73
2023-05-01T21:19:12.090Z,9.10
2023-05-01T21:21:40.735Z,9.10
2023-05-01T21:24:09.439Z,10.38
2023-05-01T21:26:38.377Z,10.55
2023-05-01T21:29:07.894Z,20.02
2023-05-01T21:31:36.795Z,12.50
2023-05-01T21:34:05.261Z,12.55
2023-05-01T21:36:33.784Z,10.60
2023-05-01T21:39:02.037Z,12.30
2023-05-01T21:41:30.402Z,11.40
2023-05-01T21:43:58.511Z,15.13
2023-05-01T21:46:28.295Z,12.65
2023-05-01T21:48:56.460Z,11.82
2023-05-01T21:51:28.363Z,11.70
2023-05-01T21:53:56.644Z,11.05
2023-05-01T21:56:25.069Z,9.43
2023-05-01T21:58:53.191Z,10.57
2023-05-01T22:01:23.212Z,10.43
2023-05-01T22:03:52.909Z,8.73
2023-05-01T22:06:24.098Z,8.80
2023-05-01T22:08:52.980Z,9.38
2023-05-01T22:11:24.378Z,9.57
2023-05-01T22:13:52.546Z,9.40
2023-05-01T22:16:20.956Z,9.65
2023-05-01T22:18:50.437Z,8.90
2023-05-01T22:21:20.162Z,10.38
2023-05-01T22:23:48.266Z,8.98
2023-05-01T22:26:16.751Z,9.73
2023-05-01T22:28:45.257Z,9.05
2023-05-01T22:31:13.654Z,9.63
2023-05-01T22:33:41.879Z,9.68
2023-05-01T22:36:10.304Z,10.02
2023-05-01T22:38:39.788Z,10.90
2023-05-01T22:41:08.220Z,9.10
2023-05-01T22:43:36.454Z,8.98
2023-05-01T22:46:05.774Z,10.20
2023-05-01T22:48:34.188Z,10.23
2023-05-01T22:51:02.576Z,10.00
2023-05-01T22:53:31.179Z,8.75
2023-05-01T22:56:00.970Z,9.00
2023-05-01T22:58:29.094Z,8.70
2023-05-01T23:00:57.544Z,7.88
2023-05-01T23:03:25.919Z,8.38
2023-05-01T23:05:54.445Z,10.85
2023-05-01T23:08:22.551Z,14.00
2023-05-01T23:10:51.388Z,10.45
2023-05-01T23:13:23.395Z,10.10
2023-05-01T23:15:52.817Z,9.82
2023-05-01T23:18:25.170Z,10.73
2023-05-01T23:20:53.761Z,9.77
2023-05-01T23:23:22.333Z,8.93
2023-05-01T23:25:51.335Z,10.07
2023-05-01T23:28:24.026Z,9.65
2023-05-01T23:30:56.486Z,11.30
2023-05-01T23:35:53.633Z,11.40
2023-05-01T23:38:21.739Z,11.30
2023-05-01T23:40:50.275Z,10.48
2023-05-01T23:43:18.366Z,11.48
2023-05-01T23:45:48.201Z,12.35
2023-05-01T23:48:16.826Z,13.35
2023-05-01T23:50:45.492Z,13.05
2023-05-01T23:53:13.734Z,11.82
2023-05-01T23:55:45.267Z,12.50
2023-05-01T23:58:14.806Z,13.25
